Time;durP1;ratioP1;P1;durP2;ratioP2;P2;SDS_P1;SDS_P2;PMS_P1;PMS_P2;Temp;Humidity;BMP_temperature;BMP_pressure;BME280_temperature;BME280_humidity;BME280_pressure;Samples;Min_cycle;Max_cycle;Signal;HPM_P1;HPM_P2
2022/06/29 00:00:16;;;;;;;2.85;2.28;;;;;;;16.01;87.20;101801.69;4893798;29;20044;-80
2022/06/29 00:02:43;;;;;;;2.35;2.13;;;;;;;15.99;86.89;101797.38;4877745;29;20040;-80
2022/06/29 00:05:11;;;;;;;2.35;2.10;;;;;;;15.97;86.87;101789.44;4912235;29;20047;-80
2022/06/29 00:07:36;;;;;;;4.32;2.40;;;;;;;15.95;87.38;101791.34;4907502;29;20711;-80
2022/06/29 00:10:03;;;;;;;3.03;2.30;;;;;;;15.95;87.30;101793.16;4891196;29;20384;-79
2022/06/29 00:12:29;;;;;;;2.25;2.05;;;;;;;15.94;87.60;101789.63;4909702;29;21061;-81
2022/06/29 00:14:55;;;;;;;3.15;2.35;;;;;;;15.93;87.59;101784.34;4912602;29;20198;-81
2022/06/29 00:17:21;;;;;;;2.10;2.00;;;;;;;15.93;87.65;101777.22;4909084;29;20050;-80
2022/06/29 00:19:46;;;;;;;3.70;2.42;;;;;;;15.95;87.59;101787.81;4872272;29;20047;-79
2022/06/29 00:22:12;;;;;;;3.75;2.70;;;;;;;15.94;87.92;101773.59;4863096;29;20043;-79
2022/06/29 00:24:38;;;;;;;2.50;2.30;;;;;;;15.92;88.05;101762.16;4910427;29;20062;-80
2022/06/29 00:27:04;;;;;;;5.40;2.25;;;;;;;15.92;88.01;101775.50;4895015;29;20043;-79
2022/06/29 00:29:30;;;;;;;4.40;2.40;;;;;;;15.91;88.13;101772.88;4909981;29;20059;-80
2022/06/29 00:31:58;;;;;;;2.28;2.08;;;;;;;15.91;88.56;101768.38;4876228;29;20143;-79
2022/06/29 00:34:23;;;;;;;2.45;2.25;;;;;;;15.89;88.88;101768.47;4890282;29;20474;-80
2022/06/29 00:36:49;;;;;;;3.33;2.10;;;;;;;15.88;88.94;101766.75;4911681;29;20058;-80
2022/06/29 00:39:14;;;;;;;2.67;2.47;;;;;;;15.86;88.86;101755.28;4911357;29;20078;-80
2022/06/29 00:41:41;;;;;;;2.47;2.28;;;;;;;15.85;88.73;101753.53;4891577;29;20137;-81
2022/06/29 00:44:10;;;;;;;4.68;2.45;;;;;;;15.84;88.87;101761.63;4912412;29;20154;-79
2022/06/29 00:46:41;;;;;;;3.40;2.30;;;;;;;15.83;89.69;101758.13;4911724;29;20071;-81
2022/06/29 00:49:07;;;;;;;5.82;2.53;;;;;;;15.82;89.55;101756.41;4896911;29;20043;-80
2022/06/29 00:51:34;;;;;;;4.05;2.55;;;;;;;15.81;89.47;101741.31;4910987;29;20966;-80
2022/06/29 00:53:59;;;;;;;3.75;2.38;;;;;;;15.78;89.75;101749.47;4898209;29;20052;-80
2022/06/29 00:56:25;;;;;;;3.67;2.28;;;;;;;15.75;90.02;101736.31;4879772;29;20122;-80
2022/06/29 00:58:53;;;;;;;4.10;2.75;;;;;;;15.74;90.04;101747.91;4915660;29;20032;-80
2022/06/29 01:01:19;;;;;;;3.17;2.22;;;;;;;15.72;90.48;101749.81;4910446;29;20048;-79
2022/06/29 01:03:44;;;;;;;4.07;2.33;;;;;;;15.70;90.76;101747.22;4900127;29;20147;-80
2022/06/29 01:06:11;;;;;;;3.42;2.70;;;;;;;15.67;90.65;101741.16;4891267;29;20044;-80
2022/06/29 01:08:36;;;;;;;2.53;2.33;;;;;;;15.64;90.60;101736.00;4897655;29;20055;-80
2022/06/29 01:11:02;;;;;;;3.70;2.45;;;;;;;15.63;91.10;101736.97;4899575;29;20044;-80
2022/06/29 01:13:27;;;;;;;3.67;2.85;;;;;;;15.59;91.11;101730.91;4897727;29;20119;-82
2022/06/29 01:15:53;;;;;;;2.78;2.47;;;;;;;15.57;91.22;101739.00;4913881;29;20058;-79
2022/06/29 01:18:18;;;;;;;3.42;2.30;;;;;;;15.55;91.43;101730.22;4898752;29;20047;-80
2022/06/29 01:20:44;;;;;;;4.25;2.53;;;;;;;15.55;91.53;101727.56;4914165;29;20032;-80
2022/06/29 01:23:10;;;;;;;3.40;2.60;;;;;;;15.52;91.61;101725.03;4899183;29;20052;-80
2022/06/29 01:25:35;;;;;;;4.32;2.58;;;;;;;15.52;91.72;101734.84;4898859;29;20055;-80
2022/06/29 01:28:00;;;;;;;2.97;2.60;;;;;;;15.48;91.75;101724.31;4914244;29;20118;-80
2022/06/29 01:30:26;;;;;;;2.70;2.50;;;;;;;15.47;92.10;101725.28;4912745;29;20995;-80
2022/06/29 01:32:52;;;;;;;3.15;2.85;;;;;;;15.46;92.02;101730.69;4914254;29;20514;-80
2022/06/29 01:35:18;;;;;;;2.90;2.53;;;;;;;15.44;91.89;101721.91;4898974;29;20479;-80
2022/06/29 01:37:44;;;;;;;3.00;2.70;;;;;;;15.42;92.50;101729.97;4911411;29;20123;-81
2022/06/29 01:40:11;;;;;;;4.53;2.67;;;;;;;15.40;92.36;101725.66;4913649;29;20417;-81
2022/06/29 01:42:36;;;;;;;2.65;2.40;;;;;;;15.38;92.60;101723.09;4896789;29;20502;-81
2022/06/29 01:45:02;;;;;;;4.55;2.50;;;;;;;15.39;92.88;101723.94;4898996;29;20059;-81
2022/06/29 01:47:28;;;;;;;4.40;2.65;;;;;;;15.38;92.72;101719.56;4913966;29;20073;-80
2022/06/29 01:49:53;;;;;;;3.08;2.78;;;;;;;15.37;92.67;101721.38;4894552;29;20131;-80
2022/06/29 01:52:19;;;;;;;2.75;2.53;;;;;;;15.36;92.87;101719.63;4896996;29;20039;-81
2022/06/29 01:54:44;;;;;;;3.72;2.83;;;;;;;15.34;92.99;101716.19;4913752;29;20043;-81
2022/06/29 01:57:10;;;;;;;3.78;2.90;;;;;;;15.32;92.98;101712.75;4898150;29;20036;-81
2022/06/29 01:59:35;;;;;;;4.95;2.65;;;;;;;15.33;93.62;101715.34;4914554;29;20046;-81
2022/06/29 02:02:01;;;;;;;4.35;2.60;;;;;;;15.32;93.37;101713.59;4912760;29;20695;-80
2022/06/29 02:04:26;;;;;;;4.28;3.05;;;;;;;15.31;93.25;101701.19;4912509;29;20060;-80
2022/06/29 02:06:52;;;;;;;4.20;2.60;;;;;;;15.32;93.60;101708.25;4897334;29;20153;-80
2022/06/29 02:09:17;;;;;;;3.55;3.08;;;;;;;15.31;93.74;101695.84;4901639;29;20067;-80
2022/06/29 02:11:43;;;;;;;3.78;3.10;;;;;;;15.33;93.84;101701.13;4913955;29;20043;-80
2022/06/29 02:14:09;;;;;;;3.20;2.50;;;;;;;15.31;93.48;101695.84;4896139;29;20051;-80
2022/06/29 02:16:35;;;;;;;3.10;2.72;;;;;;;15.32;93.16;101702.91;4896810;29;20490;-80
2022/06/29 02:19:03;;;;;;;3.90;3.08;;;;;;;15.32;93.41;101697.56;4896459;29;20451;-80
2022/06/29 02:21:29;;;;;;;4.20;2.88;;;;;;;15.32;93.67;101694.91;4912713;29;20094;-80
2022/06/29 02:23:54;;;;;;;4.38;3.15;;;;;;;15.33;93.73;101696.66;4899724;29;20113;-80
2022/06/29 02:26:20;;;;;;;2.95;2.65;;;;;;;15.36;93.95;101697.44;4894626;29;20055;-79
2022/06/29 02:28:46;;;;;;;4.22;3.03;;;;;;;15.35;94.04;101691.22;4914144;29;20047;-79
2022/06/29 02:36:43;;;;;;;7.95;2.90;;;;;;;15.38;94.34;101684.88;4897419;29;20274;-80
2022/06/29 02:39:08;;;;;;;3.88;2.80;;;;;;;15.38;94.19;101685.75;4897148;29;20735;-80
2022/06/29 02:41:33;;;;;;;4.90;3.13;;;;;;;15.39;94.09;101675.91;4912995;29;21420;-80
2022/06/29 02:44:00;;;;;;;3.22;2.65;;;;;;;15.39;94.09;101681.25;4895672;29;20040;-80
2022/06/29 02:46:25;;;;;;;3.70;2.95;;;;;;;15.39;94.78;101682.13;4912544;29;20110;-80
2022/06/29 02:48:51;;;;;;;5.32;3.58;;;;;;;15.39;94.46;101671.47;4898642;29;20048;-80
2022/06/29 02:51:17;;;;;;;4.45;2.97;;;;;;;15.37;94.22;101668.03;4881476;29;20075;-80
2022/06/29 02:53:42;;;;;;;4.10;2.97;;;;;;;15.37;94.89;101668.03;4894858;29;20055;-80
2022/06/29 02:56:08;;;;;;;3.13;2.83;;;;;;;15.36;94.78;101665.41;4911853;29;20469;-80
2022/06/29 02:58:33;;;;;;;5.82;3.30;;;;;;;15.35;94.58;101664.53;4913862;29;20103;-79
2022/06/29 03:00:59;;;;;;;3.22;2.92;;;;;;;15.33;94.74;101672.66;4910482;29;20402;-81
2022/06/29 03:03:25;;;;;;;5.50;3.20;;;;;;;15.32;94.86;101670.06;4911880;29;20075;-80
2022/06/29 03:05:50;;;;;;;5.35;3.17;;;;;;;15.31;95.24;101658.50;4892550;29;20411;-81
2022/06/29 03:08:16;;;;;;;3.03;2.75;;;;;;;15.31;95.24;101661.19;4910210;29;20463;-80
2022/06/29 03:10:41;;;;;;;3.53;3.10;;;;;;;15.30;95.35;101653.25;4913506;29;20042;-80
2022/06/29 03:13:07;;;;;;;3.83;3.17;;;;;;;15.29;95.64;101654.19;4912746;29;20043;-80
2022/06/29 03:15:32;;;;;;;3.70;3.40;;;;;;;15.27;95.69;101642.75;4910299;29;20043;-80
2022/06/29 03:17:58;;;;;;;3.67;3.38;;;;;;;15.26;95.31;101641.03;4861737;29;20115;-80
2022/06/29 03:20:24;;;;;;;5.43;3.35;;;;;;;15.26;95.61;101633.03;4893636;29;20043;-81
2022/06/29 03:22:50;;;;;;;3.35;3.05;;;;;;;15.25;96.02;101637.50;4879346;29;20205;-80
2022/06/29 03:25:15;;;;;;;3.67;3.03;;;;;;;15.24;95.45;101633.09;4893219;29;21457;-80
2022/06/29 03:27:42;;;;;;;3.88;3.08;;;;;;;15.25;95.92;101639.31;4893058;29;20657;-80
2022/06/29 03:30:08;;;;;;;3.80;3.20;;;;;;;15.26;96.11;101627.69;4911365;29;20043;-81
2022/06/29 03:32:33;;;;;;;4.97;3.30;;;;;;;15.24;96.13;101624.25;4857525;29;20040;-80
2022/06/29 03:35:02;;;;;;;3.30;3.00;;;;;;;15.25;96.22;101621.50;4910732;29;20075;-80
2022/06/29 03:37:28;;;;;;;3.90;3.13;;;;;;;15.25;95.87;101621.50;4894380;29;20372;-80
2022/06/29 03:39:54;;;;;;;3.58;2.70;;;;;;;15.26;95.99;101622.38;4880197;29;20039;-80
2022/06/29 03:42:20;;;;;;;4.65;3.10;;;;;;;15.27;95.97;101624.97;4908943;29;20102;-80
2022/06/29 03:44:45;;;;;;;3.20;2.90;;;;;;;15.29;95.79;101620.41;4879908;29;20052;-80
2022/06/29 03:47:11;;;;;;;3.53;3.22;;;;;;;15.31;95.79;101614.97;4893085;29;20043;-80
2022/06/29 03:49:37;;;;;;;3.20;2.90;;;;;;;15.32;95.58;101617.56;4892830;29;20110;-80
2022/06/29 03:52:03;;;;;;;3.40;3.08;;;;;;;15.34;95.63;101620.13;4876003;29;20035;-81
2022/06/29 03:54:28;;;;;;;3.25;2.92;;;;;;;15.36;96.06;101622.75;4894340;29;20380;-81
2022/06/29 03:56:54;;;;;;;3.35;2.92;;;;;;;15.37;95.51;101612.00;4909252;29;20068;-82
2022/06/29 03:59:20;;;;;;;4.25;3.20;;;;;;;15.40;95.55;101610.94;4912452;29;20542;-81
2022/06/29 04:01:46;;;;;;;4.13;3.28;;;;;;;15.40;95.71;101605.59;4895508;29;21615;-80
2022/06/29 04:04:12;;;;;;;3.65;2.90;;;;;;;15.43;95.12;101600.97;4893240;29;20088;-80
2022/06/29 04:06:38;;;;;;;3.60;3.03;;;;;;;15.47;95.26;101604.31;4896138;29;20032;-80
2022/06/29 04:09:04;;;;;;;4.28;3.33;;;;;;;15.50;95.18;101604.19;4909097;29;20040;-79
2022/06/29 04:14:13;;;;;;;3.53;3.20;;;;;;;15.58;95.09;101601.94;4897598;29;20066;-80
2022/06/29 04:16:39;;;;;;;3.63;3.33;;;;;;;15.61;95.46;101601.78;4910227;29;20044;-80
2022/06/29 04:19:04;;;;;;;3.58;3.08;;;;;;;15.65;95.19;101602.47;4882290;29;20048;-80
2022/06/29 04:21:30;;;;;;;3.65;2.88;;;;;;;15.70;95.24;101597.72;4894212;29;20090;-80
2022/06/29 04:23:55;;;;;;;4.05;3.13;;;;;;;15.73;95.25;101599.38;4909588;29;20064;-79
2022/06/29 04:26:21;;;;;;;4.70;3.22;;;;;;;15.78;95.21;101601.78;4875690;29;20111;-80
2022/06/29 04:28:46;;;;;;;5.07;3.13;;;;;;;15.80;95.18;101600.75;4881185;29;20498;-79
2022/06/29 04:31:12;;;;;;;4.40;3.17;;;;;;;15.81;95.01;101605.16;4913316;29;21019;-79
2022/06/29 04:33:37;;;;;;;3.30;3.10;;;;;;;15.85;95.16;101603.19;4915991;29;20048;-80
2022/06/29 04:36:03;;;;;;;3.95;3.00;;;;;;;15.85;94.87;101595.19;4900400;29;20529;-79
2022/06/29 04:38:28;;;;;;;4.00;2.60;;;;;;;15.86;94.40;101592.41;4914176;29;20070;-79
2022/06/29 04:40:54;;;;;;;3.15;2.85;;;;;;;15.89;94.55;101594.91;4898496;29;20043;-80
2022/06/29 04:43:19;;;;;;;4.28;3.10;;;;;;;15.91;94.67;101601.97;4900016;29;20055;-79
2022/06/29 04:48:29;;;;;;;3.13;2.83;;;;;;;15.94;94.47;101581.34;4916025;29;20039;-80
2022/06/29 04:50:55;;;;;;;3.80;3.03;;;;;;;15.97;94.00;101580.31;4897637;29;20387;-81
2022/06/29 04:53:20;;;;;;;3.20;2.90;;;;;;;15.99;94.53;101581.94;4916454;29;20064;-82
2022/06/29 04:55:46;;;;;;;3.22;2.92;;;;;;;16.00;93.94;101572.97;4915775;29;20040;-80
2022/06/29 04:58:11;;;;;;;2.95;2.75;;;;;;;16.03;94.07;101574.63;4915136;29;20190;-80
2022/06/29 05:00:37;;;;;;;3.10;2.80;;;;;;;16.05;94.14;101570.03;4898500;29;20044;-79
2022/06/29 05:03:03;;;;;;;3.50;3.20;;;;;;;16.08;94.00;101572.50;4913364;29;20048;-81
2022/06/29 05:05:28;;;;;;;3.25;2.83;;;;;;;16.11;93.67;101574.16;4896152;29;20052;-80
2022/06/29 05:07:54;;;;;;;3.45;3.00;;;;;;;16.15;93.34;101576.59;4896051;29;20040;-81
2022/06/29 05:10:19;;;;;;;3.42;3.05;;;;;;;16.22;93.49;101570.88;4897486;29;20403;-82
2022/06/29 05:12:45;;;;;;;3.42;3.00;;;;;;;16.26;93.28;101573.28;4900304;29;20048;-82
2022/06/29 05:15:10;;;;;;;3.30;3.00;;;;;;;16.30;93.07;101565.97;4914183;29;20044;-80
2022/06/29 05:17:37;;;;;;;3.22;2.72;;;;;;;16.34;93.34;101562.13;4896800;29;20040;-82
2022/06/29 05:20:11;;;;;;;4.05;3.17;;;;;;;16.37;93.19;101553.97;4914797;29;20047;-81
2022/06/29 05:22:36;;;;;;;4.10;3.13;;;;;;;16.37;92.73;101556.63;4898356;29;20040;-81
2022/06/29 05:25:06;;;;;;;3.25;3.00;;;;;;;16.38;92.60;101561.03;4915613;29;20166;-82
2022/06/29 05:27:31;;;;;;;5.47;2.70;;;;;;;16.42;92.68;101557.22;4867113;29;20463;-81
2022/06/29 05:29:57;;;;;;;3.15;2.85;;;;;;;16.46;92.86;101555.22;4915611;29;20055;-81
2022/06/29 05:32:23;;;;;;;3.42;3.00;;;;;;;16.50;92.77;101559.44;4915551;29;20054;-80
2022/06/29 05:34:48;;;;;;;4.72;3.28;;;;;;;16.60;92.64;101561.56;4913491;29;20185;-82
2022/06/29 05:37:14;;;;;;;3.58;3.17;;;;;;;16.64;92.22;101557.75;4895616;29;20507;-81
2022/06/29 05:39:39;;;;;;;4.13;2.95;;;;;;;16.70;92.24;101557.38;4913592;29;20040;-82
2022/06/29 05:42:05;;;;;;;3.47;2.92;;;;;;;16.74;92.27;101552.72;4913843;29;20101;-81
2022/06/29 05:44:30;;;;;;;2.92;2.67;;;;;;;16.83;91.92;101554.81;4915121;29;20051;-80
2022/06/29 05:46:56;;;;;;;3.63;3.30;;;;;;;16.94;91.88;101548.84;4912471;29;20410;-81
2022/06/29 05:49:21;;;;;;;4.43;3.00;;;;;;;17.09;91.62;101555.94;4893640;29;20054;-76
2022/06/29 05:51:47;;;;;;;3.03;2.78;;;;;;;17.20;91.14;101549.03;4911327;29;20051;-75
2022/06/29 05:54:12;;;;;;;4.75;2.83;;;;;;;17.34;90.76;101545.50;4909931;29;20205;-78
2022/06/29 05:56:38;;;;;;;4.25;2.90;;;;;;;17.47;89.98;101540.22;4878432;29;20044;-76
2022/06/29 05:59:03;;;;;;;3.05;2.65;;;;;;;17.63;89.63;101551.69;4895935;29;20067;-76
2022/06/29 06:01:29;;;;;;;2.65;2.45;;;;;;;17.81;89.46;101547.91;4912102;29;20044;-76
2022/06/29 06:03:54;;;;;;;3.17;2.85;;;;;;;17.99;89.14;101546.72;4913848;29;20079;-76
2022/06/29 06:06:20;;;;;;;2.60;2.40;;;;;;;18.14;88.08;101544.84;4908634;29;20043;-76
2022/06/29 06:08:46;;;;;;;3.60;2.92;;;;;;;18.27;87.07;101550.28;4862192;29;20043;-76
2022/06/29 06:11:11;;;;;;;2.85;2.60;;;;;;;18.47;87.18;101561.47;4913567;29;20126;-76
2022/06/29 06:13:44;;;;;;;3.30;2.80;;;;;;;18.68;87.12;101559.13;4882658;29;20070;-76
2022/06/29 06:16:13;;;;;;;4.13;2.38;;;;;;;18.84;86.55;101547.31;4913138;29;20032;-76
2022/06/29 06:18:39;;;;;;;2.78;2.58;;;;;;;19.02;85.92;101545.25;4911266;29;20047;-76
2022/06/29 06:21:04;;;;;;;4.10;2.65;;;;;;;19.18;85.53;101544.16;4912326;29;20414;-76
2022/06/29 06:23:30;;;;;;;2.88;2.65;;;;;;;19.39;85.88;101537.22;4914478;29;20055;-76
2022/06/29 06:25:56;;;;;;;3.88;2.53;;;;;;;19.64;85.53;101540.81;4911764;29;20078;-76
2022/06/29 06:28:21;;;;;;;3.28;2.72;;;;;;;19.84;83.86;101546.56;4912268;29;20775;-76
2022/06/29 06:30:47;;;;;;;2.60;2.40;;;;;;;20.01;83.96;101547.16;4912611;29;20047;-77
2022/06/29 06:33:15;;;;;;;3.03;2.45;;;;;;;20.18;82.90;101549.44;4914332;29;20043;-76
2022/06/29 06:35:41;;;;;;;2.50;2.30;;;;;;;20.28;82.15;101544.22;4910244;29;20048;-76
2022/06/29 06:38:06;;;;;;;2.38;2.15;;;;;;;20.40;81.65;101545.13;4897468;29;21521;-76
2022/06/29 06:43:16;;;;;;;2.72;2.50;;;;;;;20.68;80.84;101545.69;4895184;29;20051;-76
2022/06/29 06:45:42;;;;;;;4.97;2.80;;;;;;;20.85;81.33;101535.44;4894805;29;20040;-76
2022/06/29 06:48:08;;;;;;;3.30;2.42;;;;;;;21.04;80.71;101537.56;4878678;29;20759;-76
2022/06/29 06:50:33;;;;;;;4.68;2.13;;;;;;;21.14;79.32;101545.78;4896184;29;20043;-76
2022/06/29 06:52:59;;;;;;;2.65;2.20;;;;;;;21.33;78.85;101537.06;4911082;29;20515;-76
2022/06/29 06:55:25;;;;;;;2.90;2.03;;;;;;;21.48;78.82;101543.06;4891382;29;20123;-76
2022/06/29 06:57:50;;;;;;;3.67;2.00;;;;;;;21.55;77.57;101541.56;4896208;29;20036;-76
2022/06/29 07:00:16;;;;;;;2.38;2.10;;;;;;;21.65;77.40;101543.50;4910941;29;20396;-76
2022/06/29 07:02:41;;;;;;;1.98;1.85;;;;;;;21.79;76.94;101539.72;4882099;29;20050;-76
2022/06/29 07:05:07;;;;;;;3.20;1.77;;;;;;;21.91;76.90;101544.09;4893427;29;20063;-76
2022/06/29 07:07:35;;;;;;;1.90;1.65;;;;;;;22.05;76.01;101540.22;4911704;29;20035;-76
2022/06/29 07:10:01;;;;;;;1.92;1.83;;;;;;;22.16;75.69;101541.19;4911110;29;20042;-74
2022/06/29 07:12:26;;;;;;;2.60;1.80;;;;;;;22.24;74.94;101541.38;4895154;29;20039;-74
2022/06/29 07:14:52;;;;;;;1.95;1.55;;;;;;;22.35;74.50;101530.53;4909899;29;20036;-77
2022/06/29 07:17:17;;;;;;;2.05;1.63;;;;;;;22.45;73.37;101538.69;4910683;29;20051;-74
2022/06/29 07:19:43;;;;;;;1.40;1.30;;;;;;;22.52;70.34;101536.38;4910772;29;20094;-78
2022/06/29 07:22:09;;;;;;;1.10;1.10;;;;;;;22.53;71.34;101532.66;4875723;29;20051;-76
2022/06/29 07:24:35;;;;;;;2.38;1.30;;;;;;;22.49;69.92;101531.19;4910375;29;20111;-75
2022/06/29 07:27:00;;;;;;;2.55;1.48;;;;;;;22.55;69.68;101533.38;4911643;29;20170;-74
2022/06/29 07:29:26;;;;;;;2.35;1.50;;;;;;;22.62;69.16;101529.16;4911951;29;20047;-75
2022/06/29 07:31:51;;;;;;;3.67;1.60;;;;;;;22.72;69.11;101533.78;4913176;29;20032;-74
2022/06/29 07:34:17;;;;;;;1.23;1.13;;;;;;;22.76;68.20;101530.69;4910294;29;20040;-74
2022/06/29 07:36:42;;;;;;;1.58;1.30;;;;;;;22.77;68.00;101526.16;4898587;29;20051;-75
2022/06/29 07:39:08;;;;;;;1.40;1.30;;;;;;;22.80;67.16;101523.19;4912625;29;20043;-76
2022/06/29 07:41:36;;;;;;;1.50;1.40;;;;;;;22.87;67.21;101518.94;4895934;29;20502;-75
2022/06/29 07:44:03;;;;;;;1.63;1.23;;;;;;;22.96;66.59;101516.41;4895246;29;20122;-77
2022/06/29 07:46:29;;;;;;;1.42;1.20;;;;;;;23.13;67.21;101515.78;4910109;29;20506;-73
2022/06/29 07:48:54;;;;;;;1.90;1.00;;;;;;;23.27;66.89;101508.31;4893401;29;20079;-77
2022/06/29 07:51:20;;;;;;;1.42;1.27;;;;;;;23.36;65.94;101503.97;4893495;29;20039;-74
2022/06/29 07:53:45;;;;;;;1.58;1.20;;;;;;;23.48;66.11;101507.41;4913449;29;20044;-73
2022/06/29 07:56:11;;;;;;;1.90;1.20;;;;;;;23.65;65.53;101505.88;4897670;29;20044;-76
2022/06/29 07:58:36;;;;;;;1.27;1.20;;;;;;;23.72;65.42;101507.88;4892337;29;21536;-76
2022/06/29 08:01:05;;;;;;;1.48;1.30;;;;;;;23.87;64.98;101510.16;4892259;29;20048;-76
2022/06/29 08:03:33;;;;;;;1.42;1.15;;;;;;;23.96;64.52;101512.00;4911511;29;20498;-75
2022/06/29 08:06:00;;;;;;;2.15;1.17;;;;;;;24.09;64.44;101513.59;4907643;29;20035;-85
2022/06/29 08:08:26;;;;;;;1.30;1.20;;;;;;;24.17;63.98;101505.63;4871429;29;20043;-78
2022/06/29 08:10:52;;;;;;;2.25;1.40;;;;;;;24.21;63.41;101503.47;4885051;29;21001;-77
2022/06/29 08:13:17;;;;;;;2.25;1.27;;;;;;;24.32;63.85;101492.50;4909725;29;20739;-77
2022/06/29 08:15:45;;;;;;;1.17;1.08;;;;;;;24.45;63.50;101494.91;4888218;29;20028;-78
2022/06/29 08:18:15;;;;;;;1.10;1.00;;;;;;;24.54;62.69;101498.59;4892225;29;20035;-76
2022/06/29 08:20:42;;;;;;;0.93;0.80;;;;;;;24.59;62.52;101504.44;4888910;29;21362;-79
2022/06/29 08:23:09;;;;;;;1.20;1.20;;;;;;;24.66;61.22;101501.97;4891836;29;20060;-77
2022/06/29 08:25:34;;;;;;;1.35;1.00;;;;;;;24.68;61.70;101502.69;4897462;29;20111;-76
2022/06/29 08:28:01;;;;;;;2.55;1.35;;;;;;;24.72;61.29;101487.84;4908252;29;20060;-77
2022/06/29 08:30:26;;;;;;;1.10;1.00;;;;;;;24.70;60.65;101489.84;4911703;29;20135;-77
2022/06/29 08:32:52;;;;;;;1.70;1.13;;;;;;;24.77;60.62;101488.25;4896076;29;20048;-77
2022/06/29 08:35:18;;;;;;;2.60;1.23;;;;;;;24.77;60.85;101487.41;4892365;29;20044;-78
2022/06/29 08:37:44;;;;;;;1.13;1.02;;;;;;;24.80;61.15;101490.69;4893813;29;20051;-77
2022/06/29 08:40:13;;;;;;;1.13;1.02;;;;;;;24.90;61.03;101487.13;4886495;29;20040;-77
2022/06/29 08:42:39;;;;;;;1.40;1.13;;;;;;;24.99;60.55;101488.91;4911422;29;20763;-78
2022/06/29 08:45:07;;;;;;;1.98;1.10;;;;;;;25.11;60.72;101489.56;4910821;29;20055;-77
2022/06/29 08:47:33;;;;;;;1.75;1.23;;;;;;;25.17;60.72;101474.59;4911574;29;20047;-77
2022/06/29 08:49:59;;;;;;;1.92;1.10;;;;;;;25.21;60.38;101487.66;4880034;29;20043;-77
2022/06/29 08:52:28;;;;;;;1.00;1.00;;;;;;;25.30;60.95;101483.22;4893056;29;20043;-77
2022/06/29 08:54:54;;;;;;;1.30;1.20;;;;;;;25.40;60.98;101485.84;4894953;29;20039;-76
2022/06/29 08:57:21;;;;;;;0.90;0.80;;;;;;;25.44;60.86;101481.81;4892342;29;20051;-77
2022/06/29 08:59:48;;;;;;;0.95;0.95;;;;;;;25.54;61.32;101483.66;4888374;29;20032;-76
2022/06/29 09:02:13;;;;;;;1.60;1.50;;;;;;;25.65;61.11;101480.69;4910730;29;20649;-77
2022/06/29 09:04:39;;;;;;;1.10;1.00;;;;;;;25.80;61.49;101475.59;4892694;29;20051;-76
2022/06/29 09:07:05;;;;;;;1.55;1.20;;;;;;;25.92;61.37;101486.22;4908654;29;20067;-76
2022/06/29 09:09:31;;;;;;;3.25;1.20;;;;;;;26.07;60.94;101481.94;4908590;29;20110;-76
2022/06/29 09:11:56;;;;;;;2.63;1.20;;;;;;;26.14;59.89;101477.59;4910002;29;20059;-77
2022/06/29 09:14:24;;;;;;;2.20;1.00;;;;;;;26.06;59.07;101476.66;4912636;29;20258;-78
2022/06/29 09:17:06;;;;;;;1.58;1.00;;;;;;;25.92;54.08;101469.94;4911858;29;20143;-77
2022/06/29 09:19:34;;;;;;;1.60;1.23;;;;;;;25.81;57.65;101473.75;4895152;29;20701;-77
2022/06/29 09:22:00;;;;;;;1.13;0.90;;;;;;;25.66;57.45;101468.88;4878693;29;20725;-77
2022/06/29 09:24:32;;;;;;;1.20;1.10;;;;;;;25.49;57.14;101475.97;4879176;29;20059;-77
2022/06/29 09:27:11;;;;;;;3.38;1.30;;;;;;;25.39;55.81;101477.88;4891481;29;20060;-77
2022/06/29 09:29:44;;;;;;;1.10;1.00;;;;;;;25.35;57.04;101466.50;4912856;29;20059;-78
2022/06/29 09:32:12;;;;;;;7.05;1.33;;;;;;;25.43;57.31;101471.16;4881785;29;20071;-77
2022/06/29 09:34:39;;;;;;;2.65;1.13;;;;;;;25.51;57.06;101473.94;4897303;29;20293;-78
2022/06/29 09:37:14;;;;;;;3.38;1.30;;;;;;;25.67;56.85;101467.00;4898058;29;21586;-77
2022/06/29 09:39:47;;;;;;;2.65;1.00;;;;;;;25.79;56.20;101468.47;4876105;29;20443;-77
2022/06/29 09:42:15;;;;;;;1.02;0.93;;;;;;;25.84;56.22;101471.59;4915616;29;20098;-77
2022/06/29 09:44:41;;;;;;;2.42;1.10;;;;;;;25.87;55.78;101473.97;4897486;29;20234;-77
2022/06/29 09:47:09;;;;;;;2.35;1.00;;;;;;;25.94;54.98;101471.50;4897931;29;20854;-77
2022/06/29 09:49:36;;;;;;;2.13;1.05;;;;;;;26.06;55.01;101463.09;4914142;29;20043;-77
2022/06/29 09:52:06;;;;;;;1.42;1.10;;;;;;;26.17;54.42;101466.44;4913304;29;20166;-77
2022/06/29 09:54:37;;;;;;;1.23;1.13;;;;;;;26.23;53.79;101466.81;4895891;29;20067;-77
2022/06/29 09:57:08;;;;;;;2.22;1.10;;;;;;;26.31;53.68;101464.19;4864433;29;20387;-77
2022/06/29 10:02:45;;;;;;;1.10;1.00;;;;;;;26.42;53.40;101460.34;4911903;29;20052;-78
2022/06/29 10:05:12;;;;;;;1.30;1.00;;;;;;;26.41;53.35;101459.47;4911328;29;20044;-76
2022/06/29 10:07:42;;;;;;;1.90;1.38;;;;;;;26.35;52.95;101462.84;4907895;29;20181;-77
2022/06/29 10:10:27;;;;;;;1.00;0.90;;;;;;;26.30;52.06;101459.75;4873376;29;20036;-79
2022/06/29 10:16:21;;;;;;;1.50;1.17;;;;;;;26.43;52.47;101454.75;4873890;29;20052;-79
2022/06/29 10:19:17;;;;;;;1.52;1.00;;;;;;;26.50;52.58;101459.53;4879903;29;20111;-79
2022/06/29 10:21:43;;;;;;;1.27;1.02;;;;;;;26.44;52.61;101461.91;4911823;29;20625;-80
2022/06/29 10:24:08;;;;;;;1.13;1.00;;;;;;;26.40;52.92;101456.94;4896254;29;20151;-77
2022/06/29 10:26:37;;;;;;;2.17;1.08;;;;;;;26.49;52.61;101449.69;4911829;29;21460;-77
2022/06/29 10:29:09;;;;;;;1.27;1.02;;;;;;;26.49;52.46;101441.53;4913615;29;20055;-79
2022/06/29 10:31:50;;;;;;;1.10;0.90;;;;;;;26.58;51.49;101446.03;4910318;29;20071;-78
2022/06/29 10:37:00;;;;;;;0.95;0.90;;;;;;;26.56;51.80;101443.47;4913078;29;20165;-78
2022/06/29 10:39:26;;;;;;;1.42;1.25;;;;;;;26.52;52.29;101431.22;4912180;29;20051;-79
2022/06/29 10:44:58;;;;;;;1.35;1.13;;;;;;;26.40;51.18;101440.63;4878790;29;20706;-78
2022/06/29 10:47:24;;;;;;;1.30;1.20;;;;;;;26.38;53.27;101432.69;4895272;29;20058;-78
2022/06/29 10:50:20;;;;;;;2.53;1.15;;;;;;;26.44;52.16;101434.75;4912892;29;20047;-78
2022/06/29 10:52:46;;;;;;;1.42;1.05;;;;;;;26.59;52.37;101431.44;4894219;29;20112;-80
2022/06/29 10:55:12;;;;;;;0.90;0.90;;;;;;;26.66;51.19;101429.78;4891902;29;20047;-78
2022/06/29 10:57:39;;;;;;;1.20;0.90;;;;;;;26.72;49.79;101425.53;4911791;29;22217;-79
2022/06/29 11:00:10;;;;;;;0.98;0.93;;;;;;;26.84;49.74;101434.25;4892410;29;20039;-80
2022/06/29 11:02:36;;;;;;;1.00;1.00;;;;;;;26.92;49.92;101426.19;4894984;29;20050;-79
2022/06/29 11:05:02;;;;;;;0.95;0.90;;;;;;;26.90;49.94;101425.47;4895255;29;20443;-78
2022/06/29 11:12:57;;;;;;;0.80;0.80;;;;;;;27.02;48.82;101415.16;4910698;29;20143;-78
2022/06/29 11:15:42;;;;;;;0.82;0.82;;;;;;;27.12;48.45;101420.44;4893277;29;20048;-78
2022/06/29 11:18:11;;;;;;;2.10;1.00;;;;;;;27.11;48.94;101411.47;4911359;29;20102;-79
2022/06/29 11:20:38;;;;;;;1.77;1.00;;;;;;;27.17;48.38;101414.53;4878517;29;20205;-78
2022/06/29 11:23:15;;;;;;;1.10;1.00;;;;;;;27.25;46.34;101404.50;4913303;29;20525;-80
2022/06/29 11:25:47;;;;;;;1.10;1.00;;;;;;;27.27;47.57;101396.19;4895517;29;20142;-78
2022/06/29 11:28:16;;;;;;;1.15;0.85;;;;;;;27.32;47.77;101403.84;4913856;29;20103;-78
2022/06/29 11:30:57;;;;;;;0.90;0.90;;;;;;;27.36;46.42;101399.78;4912541;29;20067;-78
2022/06/29 11:33:26;;;;;;;0.85;0.80;;;;;;;27.40;47.22;101406.59;4895660;29;20035;-79
2022/06/29 11:35:52;;;;;;;1.42;0.90;;;;;;;27.44;46.62;101407.13;4906814;29;20050;-79
2022/06/29 11:38:17;;;;;;;0.95;0.90;;;;;;;27.41;47.21;101397.44;4882227;29;20039;-76
2022/06/29 11:40:43;;;;;;;1.20;1.10;;;;;;;27.37;46.81;101390.63;4893846;29;20054;-77
2022/06/29 11:43:14;;;;;;;2.25;1.00;;;;;;;27.33;46.83;101389.25;4883185;29;20127;-77
2022/06/29 11:45:46;;;;;;;1.27;0.93;;;;;;;27.34;47.35;101386.38;4893055;29;20129;-76
2022/06/29 11:48:26;;;;;;;0.85;0.85;;;;;;;27.41;46.29;101380.25;4912786;29;20046;-75
2022/06/29 11:50:57;;;;;;;1.20;1.10;;;;;;;27.45;45.57;101387.06;4896086;29;20047;-77
2022/06/29 11:53:47;;;;;;;1.30;1.20;;;;;;;27.44;45.24;101380.75;4912922;29;20055;-76